Airfield :
LOGIN :

Register | Disclaimer

   EN    FR    IT 

 










Legend :    VFR   Marginal VFR   IFR   Intensive IFR   Very Intensive IFR
Visi :
Ceiling :
>= 8 km
>= 3000ft
5 to 8 km
1000 to 3000 ft
1500m to 5 km
500 to 1000 ft
800 to 1500m
200 to 500 ft
< 800m
< 200 ft
Symbols :   Thunderstorms  Fog  Heavy snow  Heavy precipitations  Wind > 20 kt
SIGMETs :     Misc.  Thunderstorms  Icing  Turbulence  Mountain Waves  Volcanic Ashes






- Airport Elevation : 10 ft
- IATA code : AAL


EKYT - Aalborg

CURRENT METAR :
  • 171150Z 14001KT 9000 -SHRA FEW002 SCT007 BKN009 07/07 Q1013

EXPIRED METARs :
  • 171135Z 13002KT 3000 -SHRA BR FEW002 OVC011 07/07 Q1013
  • 171050Z AUTO 15002KT 6000 -SHRA FEW002/// SCT004/// OVC006/// 07/07 Q1013
  • 171034Z AUTO 14001KT 2700 DZ BR FEW002/// BKN004/// BKN009/// OVC011/// 07/07 Q1013
  • 171029Z AUTO 14001KT 2300 DZ BR FEW002/// SCT004/// BKN006/// OVC011/// 07/07 Q1013
  • 171009Z 15003KT 3000 -SHRA BR FEW002 BKN011 OVC025 07/07 Q1013
  • 170959Z AUTO 14002KT 5000 -RA FEW002/// BKN026/// OVC030/// 07/07 Q1012
  • 170958Z AUTO 14002KT 5000 FEW002/// BKN026/// OVC030/// 07/07 Q1012
  • 170920Z AUTO 00000KT 9999 BKN033/// BKN040/// 07/07 Q1012

TAF TAF EKYT
Valid from the 17 at 12:00 until the 18 at 12:00 UTC


171126Z 1712/1812 VRB05KT 9999 SCT004 BKN050
TEMPO 1712/1713 6000 BKN005
BECMG 1714/1716 08005KT
TEMPO 1718/1803 2500 BR BKN002
TEMPO 1803/1809 4000 -RADZ BR BKN012



MET'MAP, your aeronautical weather chart ! - Copyright ORBIFLY December 2007 - Disclaimer

ORBIFLY MET'MAP TEAM :

Programming & Development : Alexandra Zaïnal
Concept & Development : Baudouin d'Aumeries
Co-Development & Prog : Marc-Olivier Méhu
Technical & hardware support : Manuel Goepfert

Contact : metmap@orbifly.com




SOURCES & CREDITS :

   NOAA